Yerbogachen, Russia
Current Conditions -  °F | °C
As of 1:00 AM on Saturday 29 Nov 2014 (Local Time) from UIBB Reporting Station
Broken Clouds Broken Clouds  
Wind Chill: -20°   Ceiling: 20000
Heat Index: -6°   Visibility: 3mi
Dew Point: -13°   Wind: 7mph
Humidity: 71%   Direction: 270°W
Pressure: 30.21"   Gusts: NA
Location:  61.28°N, 108.01°E
Report Text: UIBB 281700Z 27003MPS P5000 FEW026CB BKN200 M21/M25 Q1023 NOSIGRMK QFE724/0966 30820550
Loading
Personal Weather Stations






























Interactive Weather Map New forecast layout! Learn more

10-Day Weather Forecast

Advertisements
Track Severe Weather on mobile